Terminal Aerodrome Forecast
Issued by NWS

Home | Current Version | Previous Version | Text Only | Print | Product List | Glossary On
Versions: 1 2 3 4 5 6 7 8 9 10 11 12
000
FTUS45 KTWC 252324
TAFOLS
TAF
KOLS 252324Z 2600/2624 26018G26KT P6SM BKN200
     FM260300 27012G18KT P6SM BKN200
     FM260500 26005KT P6SM BKN250
     FM260700 16005KT P6SM SCT250
     FM261900 28010G18KT P6SM SCT250=

USA.gov is the U.S. government's official web portal to all federal, state and local government web resources and services.